createdAt,value
2023-05-14T00:00:19.224Z,6.35
2023-05-14T00:02:45.738Z,6.55
2023-05-14T00:05:12.294Z,7.87
2023-05-14T00:07:38.668Z,7.38
2023-05-14T00:10:05.470Z,7.22
2023-05-14T00:12:32.234Z,10.10
2023-05-14T00:14:58.620Z,7.93
2023-05-14T00:17:25.014Z,7.70
2023-05-14T00:19:51.420Z,7.63
2023-05-14T00:22:17.772Z,7.47
2023-05-14T00:24:44.153Z,7.53
2023-05-14T00:27:10.802Z,9.65
2023-05-14T00:29:37.165Z,8.73
2023-05-14T00:32:03.974Z,9.23
2023-05-14T00:34:30.453Z,11.45
2023-05-14T00:36:56.836Z,13.45
2023-05-14T00:39:23.203Z,13.02
2023-05-14T00:41:49.684Z,11.23
2023-05-14T00:44:16.050Z,8.20
2023-05-14T00:46:43.762Z,12.27
2023-05-14T00:49:10.704Z,14.50
2023-05-14T00:51:37.214Z,18.80
2023-05-14T00:54:03.727Z,19.70
2023-05-14T00:56:30.157Z,14.38
2023-05-14T00:58:56.522Z,12.52
2023-05-14T01:01:23.171Z,12.05
2023-05-14T01:03:49.936Z,9.23
2023-05-14T01:06:48.102Z,9.70
2023-05-14T01:09:23.798Z,8.52
2023-05-14T01:12:27.275Z,9.15
2023-05-14T01:15:05.797Z,8.55
2023-05-14T01:17:37.140Z,6.50
2023-05-14T01:20:03.894Z,6.43
2023-05-14T01:22:30.268Z,6.18
2023-05-14T01:24:56.633Z,6.35
2023-05-14T01:27:34.569Z,6.85
2023-05-14T01:30:35.752Z,7.00
2023-05-14T01:33:06.888Z,6.68
2023-05-14T01:35:33.714Z,7.97
2023-05-14T01:38:01.779Z,6.55
2023-05-14T01:40:29.006Z,6.13
2023-05-14T01:42:56.387Z,6.70
2023-05-14T01:45:23.973Z,8.50
2023-05-14T01:50:17.538Z,7.05
2023-05-14T01:52:44.025Z,8.90
2023-05-14T01:55:10.935Z,7.20
2023-05-14T01:57:37.469Z,10.60
2023-05-14T02:00:04.354Z,9.20
2023-05-14T02:02:31.181Z,8.88
2023-05-14T02:04:57.551Z,10.10
2023-05-14T02:07:24.016Z,9.90
2023-05-14T02:09:50.605Z,12.75
2023-05-14T02:12:16.979Z,11.20
2023-05-14T02:14:43.346Z,11.90
2023-05-14T02:17:09.837Z,9.35
2023-05-14T02:19:36.204Z,9.20
2023-05-14T02:22:02.673Z,8.88
2023-05-14T02:24:29.181Z,8.48
2023-05-14T02:26:55.603Z,8.35
2023-05-14T02:29:22.081Z,7.97
2023-05-14T02:31:48.531Z,8.48
2023-05-14T02:34:15.032Z,7.55
2023-05-14T02:36:41.733Z,7.15
2023-05-14T02:39:08.068Z,7.65
2023-05-14T02:41:34.557Z,8.20
2023-05-14T02:46:28.329Z,7.03
2023-05-14T02:48:54.724Z,7.80
2023-05-14T02:51:21.494Z,7.65
2023-05-14T02:53:47.965Z,7.40
2023-05-14T02:56:14.600Z,7.25
2023-05-14T02:58:41.128Z,6.67
2023-05-14T03:01:07.752Z,8.02
2023-05-14T03:03:35.277Z,7.10
2023-05-14T03:06:02.037Z,9.18
2023-05-14T03:08:28.486Z,7.07
2023-05-14T03:10:54.872Z,8.68
2023-05-14T03:13:21.311Z,7.53
2023-05-14T03:15:47.697Z,8.02
2023-05-14T03:18:15.085Z,10.27
2023-05-14T03:20:41.730Z,9.35
2023-05-14T03:23:08.318Z,9.00
2023-05-14T03:25:34.873Z,8.27
2023-05-14T03:28:01.278Z,10.45
2023-05-14T03:30:27.721Z,9.27
2023-05-14T03:32:54.322Z,7.90
2023-05-14T03:35:20.719Z,9.53
2023-05-14T03:37:47.127Z,10.65
2023-05-14T03:40:13.466Z,8.77
2023-05-14T03:42:39.869Z,7.82
2023-05-14T03:45:07.370Z,9.40
2023-05-14T03:50:00.190Z,8.07
2023-05-14T03:52:26.569Z,7.65
2023-05-14T03:54:53.003Z,7.75
2023-05-14T03:57:19.466Z,8.90
2023-05-14T03:59:45.853Z,9.00
2023-05-14T04:02:12.436Z,8.63
2023-05-14T04:04:38.991Z,8.97
2023-05-14T04:07:05.406Z,8.98
2023-05-14T04:09:31.805Z,9.60
2023-05-14T04:11:58.195Z,8.60
2023-05-14T04:14:24.655Z,11.32
2023-05-14T04:16:51.045Z,11.02
2023-05-14T04:19:18.372Z,13.02
2023-05-14T04:21:45.284Z,9.82
2023-05-14T04:24:11.649Z,9.13
2023-05-14T04:26:38.027Z,16.73
2023-05-14T04:29:04.377Z,13.38
2023-05-14T04:31:31.599Z,8.55
2023-05-14T04:33:58.068Z,10.75
2023-05-14T04:36:24.799Z,11.85
2023-05-14T04:38:51.808Z,11.32
2023-05-14T04:41:18.238Z,8.80
2023-05-14T04:43:44.602Z,10.02
2023-05-14T04:46:11.510Z,8.70
2023-05-14T04:48:38.025Z,9.25
2023-05-14T04:51:06.362Z,14.70
2023-05-14T04:53:33.518Z,9.43
2023-05-14T04:55:59.949Z,13.20
2023-05-14T04:58:28.801Z,7.25
2023-05-14T05:00:55.203Z,7.20
2023-05-14T05:03:21.707Z,7.68
2023-05-14T05:05:48.239Z,7.03
2023-05-14T05:08:14.770Z,7.72
2023-05-14T05:10:41.331Z,7.28
2023-05-14T05:13:07.705Z,6.43
2023-05-14T05:15:34.093Z,6.82
2023-05-14T05:18:00.664Z,7.38
2023-05-14T05:20:28.286Z,10.82
2023-05-14T05:25:21.482Z,11.48
2023-05-14T05:27:47.918Z,7.37
2023-05-14T05:30:14.426Z,8.13
2023-05-14T05:32:40.975Z,7.07
2023-05-14T05:35:07.698Z,7.23
2023-05-14T05:37:34.073Z,7.30
2023-05-14T05:40:00.536Z,6.43
2023-05-14T05:42:26.992Z,8.77
2023-05-14T05:44:53.595Z,7.50
2023-05-14T05:47:20.021Z,6.10
2023-05-14T05:49:46.444Z,6.43
2023-05-14T05:52:12.976Z,6.68
2023-05-14T05:54:39.880Z,6.97
2023-05-14T05:57:06.512Z,6.60
2023-05-14T05:59:32.995Z,5.68
2023-05-14T06:01:59.369Z,6.38
2023-05-14T06:04:25.825Z,7.47
2023-05-14T06:06:52.195Z,6.03
2023-05-14T06:09:18.705Z,6.25
2023-05-14T06:11:45.251Z,5.80
2023-05-14T06:14:11.817Z,5.47
2023-05-14T06:16:38.352Z,5.00
2023-05-14T06:19:04.911Z,5.40
2023-05-14T06:21:31.353Z,7.97
2023-05-14T06:23:57.998Z,9.25
2023-05-14T06:26:24.406Z,5.25
2023-05-14T06:28:50.928Z,4.77
2023-05-14T06:31:18.278Z,6.80
2023-05-14T06:36:11.810Z,4.55
2023-05-14T06:38:38.209Z,4.82
2023-05-14T06:41:04.674Z,5.13
2023-05-14T06:43:31.167Z,4.50
2023-05-14T06:45:57.830Z,5.13
2023-05-14T06:48:24.335Z,5.20
2023-05-14T06:50:50.926Z,4.25
2023-05-14T06:53:17.509Z,4.50
2023-05-14T06:55:44.043Z,4.10
2023-05-14T06:58:10.382Z,4.90
2023-05-14T07:00:36.923Z,4.20
2023-05-14T07:03:03.342Z,4.47
2023-05-14T07:05:29.863Z,4.03
2023-05-14T07:07:56.422Z,3.97
2023-05-14T07:10:23.741Z,4.00
2023-05-14T07:12:50.507Z,4.35
2023-05-14T07:15:16.970Z,3.75
2023-05-14T07:17:43.388Z,3.97
2023-05-14T07:20:10.504Z,4.20
2023-05-14T07:22:36.842Z,4.22
2023-05-14T07:25:03.494Z,4.40
2023-05-14T07:27:29.874Z,5.18
2023-05-14T07:29:56.249Z,4.15
2023-05-14T07:32:24.258Z,5.53
2023-05-14T07:34:50.790Z,4.20
2023-05-14T07:37:17.274Z,4.63
2023-05-14T07:39:43.889Z,4.57
2023-05-14T07:42:10.285Z,5.47
2023-05-14T07:44:36.675Z,5.37
2023-05-14T07:47:04.195Z,5.82
2023-05-14T07:49:30.630Z,5.97
2023-05-14T07:51:56.987Z,4.95
2023-05-14T07:54:23.336Z,5.03
2023-05-14T07:56:49.704Z,6.63
2023-05-14T07:59:16.092Z,5.00
2023-05-14T08:01:42.494Z,4.85
2023-05-14T08:04:11.576Z,4.87
2023-05-14T08:06:38.279Z,4.97
2023-05-14T08:09:07.290Z,4.32
2023-05-14T08:11:33.772Z,4.95
2023-05-14T08:14:00.221Z,4.63
2023-05-14T08:16:26.756Z,4.80
2023-05-14T08:18:53.255Z,4.60
2023-05-14T08:21:19.657Z,5.10
2023-05-14T08:23:46.113Z,4.75
2023-05-14T08:26:12.476Z,4.37
2023-05-14T08:28:38.803Z,4.18
2023-05-14T08:31:05.655Z,4.93
2023-05-14T08:33:32.014Z,4.60
2023-05-14T08:36:00.445Z,4.60
2023-05-14T08:38:26.826Z,4.80
2023-05-14T08:41:00.360Z,4.53
2023-05-14T08:43:37.693Z,5.85
2023-05-14T08:46:06.097Z,4.65
2023-05-14T08:48:35.104Z,4.75
2023-05-14T08:51:02.284Z,4.45
2023-05-14T08:53:28.714Z,4.47
2023-05-14T08:55:55.090Z,4.55
2023-05-14T08:58:21.567Z,4.43
2023-05-14T09:00:47.952Z,5.97
2023-05-14T09:03:15.965Z,4.38
2023-05-14T09:05:43.046Z,4.75
2023-05-14T09:08:09.435Z,4.20
2023-05-14T09:10:36.065Z,4.60
2023-05-14T09:13:02.502Z,4.22
2023-05-14T09:15:29.625Z,4.35
2023-05-14T09:17:56.877Z,4.07
2023-05-14T09:20:25.103Z,4.10
2023-05-14T09:22:54.809Z,4.10
2023-05-14T09:25:26.976Z,3.72
2023-05-14T09:27:56.120Z,3.80
2023-05-14T09:30:25.211Z,3.17
2023-05-14T09:32:54.374Z,3.65
2023-05-14T09:35:23.914Z,4.03
2023-05-14T09:37:52.157Z,3.20
2023-05-14T09:40:20.857Z,4.68
2023-05-14T09:42:49.246Z,3.80
2023-05-14T09:45:16.747Z,3.80
2023-05-14T09:50:09.976Z,3.50
2023-05-14T09:52:37.341Z,3.20
2023-05-14T09:59:57.370Z,3.33
2023-05-14T10:02:36.804Z,2.72
2023-05-14T10:05:06.005Z,2.35
2023-05-14T10:07:41.647Z,4.50
2023-05-14T10:10:12.993Z,2.72
2023-05-14T10:12:40.541Z,4.95
2023-05-14T10:15:13.535Z,5.15
2023-05-14T10:17:42.556Z,3.30
2023-05-14T10:20:13.788Z,5.28
2023-05-14T10:22:40.319Z,2.65
2023-05-14T10:25:14.932Z,2.90
2023-05-14T10:27:42.386Z,3.03
2023-05-14T10:30:12.923Z,2.72
2023-05-14T10:32:41.852Z,3.47
2023-05-14T10:35:20.437Z,2.60
2023-05-14T10:37:47.298Z,2.70
2023-05-14T10:40:14.121Z,2.67
2023-05-14T10:42:43.257Z,2.65
2023-05-14T10:45:14.406Z,2.70
2023-05-14T10:47:46.713Z,2.15
2023-05-14T10:50:15.600Z,2.35
2023-05-14T10:52:45.715Z,3.08
2023-05-14T10:55:16.645Z,2.88
2023-05-14T10:57:44.976Z,2.50
2023-05-14T11:00:12.855Z,4.78
2023-05-14T11:02:44.746Z,2.90
2023-05-14T11:05:16.967Z,3.30
2023-05-14T11:07:46.103Z,3.50
2023-05-14T11:10:20.413Z,2.78
2023-05-14T11:12:48.773Z,4.15
2023-05-14T11:15:21.199Z,4.05
2023-05-14T11:17:49.451Z,3.53
2023-05-14T11:20:19.311Z,6.53
2023-05-14T11:22:47.000Z,4.55
2023-05-14T11:25:14.546Z,3.72
2023-05-14T11:27:43.450Z,4.07
2023-05-14T11:30:18.291Z,3.72
2023-05-14T11:32:49.624Z,3.58
2023-05-14T11:35:17.435Z,3.15
2023-05-14T11:37:50.924Z,3.40
2023-05-14T11:40:18.416Z,3.13
2023-05-14T11:42:45.082Z,4.15
2023-05-14T11:45:13.005Z,3.53
2023-05-14T11:47:41.264Z,3.92
2023-05-14T11:50:09.402Z,3.88
2023-05-14T11:52:41.148Z,4.20
2023-05-14T11:55:13.556Z,3.70
2023-05-14T11:57:41.146Z,3.63
2023-05-14T12:00:14.532Z,4.00
2023-05-14T12:02:40.998Z,3.80
2023-05-14T12:05:08.978Z,3.90
2023-05-14T12:07:36.069Z,3.55
2023-05-14T12:10:03.705Z,3.50
2023-05-14T12:12:35.654Z,3.33
2023-05-14T12:15:02.128Z,3.35
2023-05-14T12:17:28.708Z,4.80
2023-05-14T12:19:57.265Z,4.05
2023-05-14T12:22:23.640Z,3.70
2023-05-14T12:24:57.916Z,3.57
2023-05-14T12:27:26.375Z,3.60
2023-05-14T12:30:19.776Z,3.45
2023-05-14T12:32:52.737Z,3.60
2023-05-14T12:35:21.542Z,4.30
2023-05-14T12:37:47.996Z,3.97
2023-05-14T12:40:14.548Z,3.70
2023-05-14T12:42:41.002Z,3.40
2023-05-14T12:45:08.645Z,3.57
2023-05-14T12:47:36.102Z,3.70
2023-05-14T12:50:02.902Z,3.60
2023-05-14T12:54:59.096Z,6.07
2023-05-14T12:57:26.885Z,3.50
2023-05-14T12:59:53.261Z,3.92
2023-05-14T13:02:19.656Z,3.50
2023-05-14T13:04:46.062Z,3.37
2023-05-14T13:07:12.529Z,3.47
2023-05-14T13:09:39.012Z,3.40
2023-05-14T13:12:06.088Z,3.78
2023-05-14T13:14:32.552Z,3.10
2023-05-14T13:16:59.110Z,4.23
2023-05-14T13:19:25.547Z,4.13
2023-05-14T13:21:52.091Z,5.10
2023-05-14T13:24:18.433Z,3.65
2023-05-14T13:26:44.963Z,3.57
2023-05-14T13:29:11.520Z,3.90
2023-05-14T13:31:38.010Z,3.90
2023-05-14T13:34:04.425Z,4.70
2023-05-14T13:36:32.519Z,3.83
2023-05-14T13:38:58.860Z,3.38
2023-05-14T13:41:26.213Z,4.85
2023-05-14T13:43:52.720Z,3.60
2023-05-14T13:46:19.111Z,5.55
2023-05-14T13:48:45.434Z,3.10
2023-05-14T13:51:12.060Z,3.15
2023-05-14T13:53:38.447Z,3.45
2023-05-14T13:56:06.424Z,3.30
2023-05-14T13:58:33.073Z,3.30
2023-05-14T14:00:59.591Z,4.03
2023-05-14T14:03:26.561Z,3.50
2023-05-14T14:05:53.143Z,3.08
2023-05-14T14:08:23.815Z,3.03
2023-05-14T14:10:51.653Z,3.22
2023-05-14T14:13:18.052Z,4.13
2023-05-14T14:15:45.163Z,3.85
2023-05-14T14:18:11.658Z,3.22
2023-05-14T14:20:39.213Z,2.97
2023-05-14T14:23:06.781Z,5.93
2023-05-14T14:25:33.223Z,3.33
2023-05-14T14:27:59.751Z,2.93
2023-05-14T14:30:26.212Z,3.25
2023-05-14T14:32:52.703Z,2.65
2023-05-14T14:35:19.773Z,3.75
2023-05-14T14:37:50.599Z,3.40
2023-05-14T14:40:17.703Z,3.40
2023-05-14T14:42:44.727Z,3.17
2023-05-14T14:45:12.314Z,2.60
2023-05-14T14:47:38.864Z,2.63
2023-05-14T14:50:06.314Z,2.92
2023-05-14T14:52:32.942Z,2.50
2023-05-14T14:54:59.913Z,2.67
2023-05-14T14:57:26.831Z,2.65
2023-05-14T14:59:53.283Z,2.67
2023-05-14T15:02:20.618Z,4.03
2023-05-14T15:04:47.169Z,2.38
2023-05-14T15:07:15.930Z,3.10
2023-05-14T15:09:42.378Z,3.22
2023-05-14T15:12:10.218Z,4.17
2023-05-14T15:14:39.046Z,2.35
2023-05-14T15:17:05.619Z,4.22
2023-05-14T15:19:32.412Z,2.97
2023-05-14T15:21:59.303Z,2.78
2023-05-14T15:24:26.449Z,3.17
2023-05-14T15:26:53.785Z,2.80
2023-05-14T15:31:46.981Z,4.40
2023-05-14T15:34:14.263Z,3.30
2023-05-14T15:36:40.874Z,3.55
2023-05-14T15:41:37.635Z,4.35
2023-05-14T15:44:04.245Z,4.35
2023-05-14T15:46:31.182Z,4.00
2023-05-14T15:48:59.011Z,4.45
2023-05-14T15:51:25.878Z,3.78
2023-05-14T15:53:55.417Z,4.85
2023-05-14T15:56:23.519Z,3.58
2023-05-14T15:58:50.115Z,4.03
2023-05-14T16:01:16.743Z,4.43
2023-05-14T16:03:43.991Z,4.10
2023-05-14T16:11:04.411Z,3.80
2023-05-14T16:13:30.830Z,3.90
2023-05-14T16:15:57.888Z,4.30
2023-05-14T16:18:25.359Z,4.50
2023-05-14T16:20:52.501Z,3.70
2023-05-14T16:23:19.007Z,4.10
2023-05-14T16:25:45.548Z,4.23
2023-05-14T16:28:12.382Z,3.55
2023-05-14T16:30:39.006Z,5.78
2023-05-14T16:33:06.281Z,3.58
2023-05-14T16:37:59.211Z,5.18
2023-05-14T16:40:25.821Z,3.58
2023-05-14T16:42:52.267Z,3.88
2023-05-14T16:45:18.917Z,4.55
2023-05-14T16:47:45.535Z,6.03
2023-05-14T16:50:11.887Z,3.40
2023-05-14T16:52:38.302Z,3.47
2023-05-14T16:55:05.229Z,4.03
2023-05-14T16:57:32.117Z,3.80
2023-05-14T16:59:59.203Z,3.97
2023-05-14T17:02:25.552Z,4.53
2023-05-14T17:04:52.198Z,3.73
2023-05-14T17:07:18.659Z,3.10
2023-05-14T17:09:45.018Z,3.10
2023-05-14T17:12:13.470Z,5.80
2023-05-14T17:14:39.837Z,2.75
2023-05-14T17:17:06.269Z,3.25
2023-05-14T17:19:32.687Z,3.00
2023-05-14T17:21:59.079Z,3.70
2023-05-14T17:24:25.429Z,3.28
2023-05-14T17:26:51.874Z,3.85
2023-05-14T17:29:18.273Z,3.23
2023-05-14T17:31:44.748Z,4.80
2023-05-14T17:34:11.188Z,4.55
2023-05-14T17:36:37.605Z,7.50
2023-05-14T17:39:04.114Z,4.40
2023-05-14T17:41:30.509Z,3.30
2023-05-14T17:43:56.868Z,6.03
2023-05-14T17:46:23.348Z,3.20
2023-05-14T17:48:49.709Z,4.20
2023-05-14T17:51:16.211Z,4.15
2023-05-14T17:53:42.641Z,4.57
2023-05-14T17:56:09.002Z,4.20
2023-05-14T17:58:36.138Z,6.45
2023-05-14T18:01:03.618Z,5.88
2023-05-14T18:03:30.812Z,6.00
2023-05-14T18:05:58.626Z,4.70
2023-05-14T18:08:25.051Z,5.03
2023-05-14T18:10:51.462Z,4.15
2023-05-14T18:13:17.866Z,4.60
2023-05-14T18:15:44.329Z,3.25
2023-05-14T18:18:11.016Z,3.63
2023-05-14T18:20:37.481Z,4.07
2023-05-14T18:23:03.926Z,3.70
2023-05-14T18:25:30.383Z,4.00
2023-05-14T18:27:56.744Z,3.43
2023-05-14T18:30:23.091Z,4.22
2023-05-14T18:32:49.569Z,3.60
2023-05-14T18:35:16.040Z,3.43
2023-05-14T18:37:42.408Z,3.70
2023-05-14T18:40:09.469Z,3.22
2023-05-14T18:42:36.112Z,3.08
2023-05-14T18:45:04.114Z,3.08
2023-05-14T18:47:31.135Z,2.95
2023-05-14T18:49:59.523Z,3.45
2023-05-14T18:52:26.669Z,3.38
2023-05-14T18:54:55.531Z,2.92
2023-05-14T18:57:22.564Z,4.80
2023-05-14T18:59:49.081Z,3.40
2023-05-14T19:02:15.431Z,4.43
2023-05-14T19:04:51.838Z,3.13
2023-05-14T19:07:19.467Z,2.85
2023-05-14T19:09:46.090Z,3.20
2023-05-14T19:12:13.039Z,3.13
2023-05-14T19:14:39.491Z,3.15
2023-05-14T19:17:05.930Z,3.38
2023-05-14T19:19:32.573Z,3.80
2023-05-14T19:21:58.983Z,3.20
2023-05-14T19:24:25.431Z,3.00
2023-05-14T19:26:51.797Z,3.58
2023-05-14T19:29:18.168Z,3.20
2023-05-14T19:31:44.688Z,3.65
2023-05-14T19:34:11.132Z,3.23
2023-05-14T19:36:37.543Z,2.70
2023-05-14T19:39:04.086Z,3.90
2023-05-14T19:41:30.603Z,2.83
2023-05-14T19:43:56.956Z,2.60
2023-05-14T19:46:23.325Z,3.55
2023-05-14T19:48:49.756Z,3.38
2023-05-14T19:51:16.120Z,3.70
2023-05-14T19:53:42.597Z,2.05
2023-05-14T19:56:08.978Z,2.35
2023-05-14T19:58:35.425Z,2.95
2023-05-14T20:01:01.850Z,2.25
2023-05-14T20:03:28.263Z,2.40
2023-05-14T20:05:55.742Z,3.00
2023-05-14T20:10:48.558Z,3.27
2023-05-14T20:13:15.087Z,2.17
2023-05-14T20:15:41.893Z,2.20
2023-05-14T20:18:08.490Z,2.28
2023-05-14T20:20:34.923Z,2.45
2023-05-14T20:23:01.312Z,3.55
2023-05-14T20:25:28.753Z,2.88
2023-05-14T20:27:55.393Z,2.55
2023-05-14T20:30:21.730Z,3.25
2023-05-14T20:32:48.178Z,2.60
2023-05-14T20:35:14.647Z,2.35
2023-05-14T20:37:41.357Z,4.28
2023-05-14T20:40:12.153Z,3.35
2023-05-14T20:42:38.857Z,3.20
2023-05-14T20:45:06.029Z,2.20
2023-05-14T20:47:34.127Z,2.05
2023-05-14T20:50:00.979Z,3.15
2023-05-14T20:52:27.512Z,3.42
2023-05-14T20:54:53.879Z,3.20
2023-05-14T20:57:20.383Z,4.45
2023-05-14T20:59:47.468Z,3.03
2023-05-14T21:02:14.050Z,3.38
2023-05-14T21:04:41.011Z,2.70
2023-05-14T21:07:07.462Z,3.08
2023-05-14T21:09:33.805Z,3.10
2023-05-14T21:12:00.236Z,3.35
2023-05-14T21:14:26.600Z,3.45
2023-05-14T21:16:53.015Z,3.38
2023-05-14T21:19:19.413Z,3.05
2023-05-14T21:21:47.297Z,3.90
2023-05-14T21:24:13.901Z,2.90
2023-05-14T21:26:41.329Z,2.80
2023-05-14T21:29:07.755Z,2.47
2023-05-14T21:31:34.176Z,2.60
2023-05-14T21:34:01.077Z,6.05
2023-05-14T21:36:27.546Z,2.95
2023-05-14T21:38:53.933Z,2.95
2023-05-14T21:41:21.261Z,2.97
2023-05-14T21:43:47.700Z,3.42
2023-05-14T21:46:14.148Z,2.50
2023-05-14T21:48:40.592Z,2.30
2023-05-14T21:51:07.275Z,2.73
2023-05-14T21:53:34.655Z,2.57
2023-05-14T21:56:01.018Z,2.53
2023-05-14T21:58:27.615Z,2.40
2023-05-14T22:00:54.004Z,4.37
2023-05-14T22:03:20.526Z,3.58
2023-05-14T22:05:47.560Z,2.70
2023-05-14T22:08:13.982Z,3.08
2023-05-14T22:10:40.772Z,3.60
2023-05-14T22:13:07.199Z,2.55
2023-05-14T22:15:34.309Z,4.95
2023-05-14T22:18:00.861Z,2.25
2023-05-14T22:20:27.348Z,2.30
2023-05-14T22:22:53.775Z,3.25
2023-05-14T22:25:20.127Z,2.53
2023-05-14T22:27:46.529Z,2.47
2023-05-14T22:30:13.040Z,2.60
2023-05-14T22:32:39.880Z,2.90
2023-05-14T22:35:06.406Z,3.10
2023-05-14T22:37:32.742Z,3.67
2023-05-14T22:39:59.154Z,2.67
2023-05-14T22:42:27.218Z,2.88
2023-05-14T22:44:53.636Z,3.00
2023-05-14T22:47:20.044Z,2.75
2023-05-14T22:49:46.667Z,2.70
2023-05-14T22:52:13.110Z,2.57
2023-05-14T22:54:39.456Z,2.60
2023-05-14T22:57:06.658Z,3.30
2023-05-14T22:59:33.085Z,2.75
2023-05-14T23:01:59.482Z,2.85
2023-05-14T23:04:26.204Z,2.92
2023-05-14T23:06:52.573Z,2.72
2023-05-14T23:09:19.134Z,4.38
2023-05-14T23:11:46.049Z,3.07
2023-05-14T23:14:12.452Z,3.50
2023-05-14T23:16:38.898Z,5.07
2023-05-14T23:19:05.406Z,3.50
2023-05-14T23:21:32.082Z,3.53
2023-05-14T23:23:58.444Z,4.05
2023-05-14T23:26:24.776Z,3.55
2023-05-14T23:28:51.593Z,3.30
2023-05-14T23:31:18.131Z,3.60
2023-05-14T23:33:44.716Z,3.40
2023-05-14T23:36:11.177Z,6.47
2023-05-14T23:38:37.646Z,3.50
2023-05-14T23:41:04.075Z,4.32
2023-05-14T23:43:30.520Z,4.53
2023-05-14T23:45:56.974Z,4.75
2023-05-14T23:48:23.386Z,3.80
2023-05-14T23:50:49.853Z,3.95
2023-05-14T23:53:16.198Z,3.72
2023-05-14T23:55:42.618Z,3.45
2023-05-14T23:58:09.016Z,3.83
